Time;durP1;ratioP1;P1;durP2;ratioP2;P2;SDS_P1;SDS_P2;PMS_P1;PMS_P2;Temp;Humidity;BMP_temperature;BMP_pressure;BME280_temperature;BME280_humidity;BME280_pressure;Samples;Min_cycle;Max_cycle;Signal;HPM_P1;HPM_P2
2023/07/26 00:02:10;;;;;;;1.83;1.42;;;;;;;13.44;86.14;101102.41;10343070;28;20496;-69
2023/07/26 00:07:10;;;;;;;2.40;2.05;;;;;;;13.34;86.05;101103.88;10350206;28;20038;-70
2023/07/26 00:12:11;;;;;;;1.83;1.73;;;;;;;13.19;86.44;101110.31;10339087;28;20521;-70
2023/07/26 00:17:11;;;;;;;7.82;1.52;;;;;;;13.13;87.30;101103.00;10337007;28;20426;-70
2023/07/26 00:22:12;;;;;;;4.68;2.60;;;;;;;13.09;87.32;101106.38;10336718;28;20046;-69
2023/07/26 00:27:14;;;;;;;5.55;1.95;;;;;;;12.96;87.43;101099.88;10336670;28;20421;-70
2023/07/26 00:32:14;;;;;;;3.30;2.03;;;;;;;12.84;87.57;101092.56;10335118;28;20100;-70
2023/07/26 00:37:14;;;;;;;6.47;1.88;;;;;;;12.82;88.12;101095.47;10334050;28;20530;-70
2023/07/26 00:42:18;;;;;;;1.98;1.85;;;;;;;12.75;88.58;101095.44;10334141;28;20058;-70
2023/07/26 00:47:19;;;;;;;3.08;1.92;;;;;;;12.64;88.40;101096.06;10316500;28;20026;-69
2023/07/26 00:52:19;;;;;;;1.75;1.65;;;;;;;12.55;88.84;101098.13;10333237;28;20497;-69
2023/07/26 00:57:19;;;;;;;3.42;3.00;;;;;;;12.50;88.95;101091.66;10315976;28;20516;-76
2023/07/26 01:02:20;;;;;;;6.55;2.42;;;;;;;12.42;88.82;101092.69;10334873;28;20026;-75
2023/07/26 01:07:26;;;;;;;7.03;2.55;;;;;;;12.34;89.55;101084.72;10334033;28;20092;-75
2023/07/26 01:12:33;;;;;;;1.73;1.47;;;;;;;12.30;89.58;101095.16;10335685;28;20053;-74
2023/07/26 01:17:34;;;;;;;3.30;2.33;;;;;;;12.23;89.67;101091.59;10316148;28;20038;-74
2023/07/26 01:22:34;;;;;;;2.92;2.10;;;;;;;12.15;89.99;101083.59;10315906;28;20057;-74
2023/07/26 01:27:35;;;;;;;2.17;2.08;;;;;;;12.08;90.48;101078.16;10333678;28;20054;-74
2023/07/26 01:32:35;;;;;;;4.25;2.50;;;;;;;12.10;91.17;101080.69;10333578;28;20042;-74
2023/07/26 01:37:37;;;;;;;2.55;2.15;;;;;;;12.04;91.23;101076.06;10332922;28;20041;-74
2023/07/26 01:42:37;;;;;;;4.57;2.67;;;;;;;12.07;91.96;101078.38;10315697;28;20060;-74
2023/07/26 01:47:37;;;;;;;10.07;3.05;;;;;;;12.04;91.79;101076.88;10316443;28;20378;-74
2023/07/26 01:52:38;;;;;;;7.07;2.70;;;;;;;12.01;92.17;101073.75;10332666;28;20066;-74
2023/07/26 01:57:38;;;;;;;2.45;2.22;;;;;;;11.97;92.49;101070.59;10333670;28;20129;-74
2023/07/26 02:02:39;;;;;;;3.10;2.35;;;;;;;12.06;93.79;101074.81;10316408;28;20041;-74
2023/07/26 02:07:39;;;;;;;1.75;1.65;;;;;;;12.00;93.72;101077.50;10340270;28;20062;-74
2023/07/26 02:12:40;;;;;;;2.53;2.40;;;;;;;12.02;94.33;101072.69;10339608;28;20042;-74
2023/07/26 02:17:40;;;;;;;3.63;2.75;;;;;;;11.95;94.14;101082.69;10322486;28;20394;-74
2023/07/26 02:22:40;;;;;;;4.47;2.15;;;;;;;12.01;95.42;101073.75;10339434;28;20093;-74
2023/07/26 02:27:41;;;;;;;2.75;2.33;;;;;;;12.04;94.95;101078.78;10340039;28;20145;-74
2023/07/26 02:32:41;;;;;;;2.80;2.60;;;;;;;11.95;94.72;101079.97;10340551;28;20121;-74
2023/07/26 02:37:42;;;;;;;2.75;2.55;;;;;;;11.88;95.19;101071.81;10322249;28;20030;-74
2023/07/26 02:42:42;;;;;;;1.85;1.75;;;;;;;11.91;95.81;101076.84;10337697;28;20062;-74
2023/07/26 02:47:42;;;;;;;3.03;1.90;;;;;;;12.03;96.12;101069.81;10321804;28;20164;-74
2023/07/26 02:52:43;;;;;;;8.88;2.78;;;;;;;12.20;96.71;101066.72;10339122;28;20034;-74
2023/07/26 02:57:43;;;;;;;7.72;2.20;;;;;;;12.40;97.19;101075.75;10339564;28;20240;-75
2023/07/26 03:02:44;;;;;;;2.92;2.63;;;;;;;12.59;97.24;101074.13;10320728;28;20509;-75
2023/07/26 03:07:44;;;;;;;5.70;2.83;;;;;;;12.70;97.65;101062.66;10338232;28;20050;-74
2023/07/26 03:12:46;;;;;;;2.75;2.55;;;;;;;12.83;97.58;101071.84;10321155;28;20133;-74
2023/07/26 03:17:46;;;;;;;3.58;2.67;;;;;;;12.98;97.66;101072.47;10335900;28;20580;-74
2023/07/26 03:22:46;;;;;;;6.40;3.15;;;;;;;13.17;98.28;101068.06;10336967;28;20045;-74
2023/07/26 03:27:47;;;;;;;4.88;3.17;;;;;;;13.27;98.04;101065.78;10343671;28;20110;-74
2023/07/26 03:32:47;;;;;;;8.98;2.53;;;;;;;13.35;98.14;101070.19;10337187;28;20043;-74
2023/07/26 03:37:48;;;;;;;3.60;2.75;;;;;;;13.48;98.57;101065.53;10336627;28;20046;-74
2023/07/26 03:42:48;;;;;;;4.70;2.67;;;;;;;13.60;99.30;101070.34;10321146;28;20073;-74
2023/07/26 03:47:48;;;;;;;10.25;3.30;;;;;;;13.69;98.70;101063.63;10337216;28;20042;-74
2023/07/26 03:52:49;;;;;;;4.07;2.85;;;;;;;13.75;99.08;101060.03;10337589;28;20126;-74
2023/07/26 03:57:49;;;;;;;2.85;2.55;;;;;;;13.82;99.33;101060.03;10337934;28;20413;-74
2023/07/26 04:02:50;;;;;;;3.45;3.15;;;;;;;13.86;99.21;101048.47;10337253;28;20041;-74
2023/07/26 04:07:50;;;;;;;8.27;3.75;;;;;;;13.87;99.01;101038.41;10336356;28;20069;-74
2023/07/26 04:12:51;;;;;;;3.13;2.92;;;;;;;13.93;99.45;101045.72;10336314;28;20327;-74
2023/07/26 04:17:51;;;;;;;2.45;2.33;;;;;;;14.04;100.00;101050.50;10318418;28;20555;-74
2023/07/26 04:22:51;;;;;;;3.25;2.90;;;;;;;14.10;99.21;101055.09;10335882;28;20073;-74
2023/07/26 04:27:52;;;;;;;4.63;3.70;;;;;;;14.14;99.34;101050.03;10334818;28;20050;-75
2023/07/26 04:32:52;;;;;;;5.80;4.43;;;;;;;14.15;99.29;101049.81;10333681;28;20069;-74
2023/07/26 04:37:53;;;;;;;8.55;4.60;;;;;;;14.18;99.90;101043.94;10333853;28;20382;-75
2023/07/26 04:42:53;;;;;;;5.93;3.75;;;;;;;14.21;99.86;101050.84;10334774;28;20058;-75
2023/07/26 04:47:53;;;;;;;6.60;3.92;;;;;;;14.25;100.00;101040.34;10317348;28;20100;-74
2023/07/26 04:52:54;;;;;;;5.68;3.08;;;;;;;14.28;100.00;101048.91;10335715;28;20430;-74
2023/07/26 04:57:54;;;;;;;8.70;4.32;;;;;;;14.42;100.00;101055.97;10332690;28;20038;-74
2023/07/26 05:02:56;;;;;;;4.65;4.05;;;;;;;14.57;100.00;101072.00;10333729;28;20022;-73
2023/07/26 05:07:56;;;;;;;5.32;4.18;;;;;;;14.36;100.00;101069.63;10335011;28;20034;-73
2023/07/26 05:12:57;;;;;;;7.35;4.90;;;;;;;14.27;100.00;101076.38;10334419;28;20073;-74
2023/07/26 05:17:58;;;;;;;13.02;4.03;;;;;;;14.14;100.00;101078.09;10334296;28;20026;-74
2023/07/26 05:22:58;;;;;;;6.55;3.75;;;;;;;14.02;100.00;101068.09;10332644;28;20390;-74
2023/07/26 05:27:58;;;;;;;19.05;4.50;;;;;;;13.91;100.00;101077.75;10317172;28;20081;-74
2023/07/26 05:32:59;;;;;;;5.80;5.10;;;;;;;13.81;100.00;101080.94;10333267;28;20165;-74
2023/07/26 05:37:59;;;;;;;6.78;4.70;;;;;;;13.77;100.00;101095.22;10333898;28;20052;-74
2023/07/26 05:43:00;;;;;;;3.92;3.58;;;;;;;13.72;100.00;101109.47;10333280;28;20137;-75
2023/07/26 05:48:00;;;;;;;8.60;4.25;;;;;;;13.72;100.00;101114.91;10315859;28;20481;-74
2023/07/26 05:53:01;;;;;;;4.53;3.90;;;;;;;13.75;100.00;101114.44;10334708;28;20054;-74
2023/07/26 05:58:01;;;;;;;6.47;4.72;;;;;;;13.76;100.00;101115.31;10334066;28;20057;-75
2023/07/26 06:03:02;;;;;;;5.43;4.82;;;;;;;14.15;100.00;101128.78;10332897;28;20122;-75
2023/07/26 06:08:02;;;;;;;7.18;4.95;;;;;;;16.06;100.00;101128.63;10332728;28;20311;-75
2023/07/26 06:13:03;;;;;;;7.88;4.10;;;;;;;16.33;100.00;101140.06;10332488;28;20031;-74
2023/07/26 06:18:03;;;;;;;5.13;4.53;;;;;;;16.50;100.00;101147.41;10331752;28;20030;-76
2023/07/26 06:23:04;;;;;;;12.60;3.92;;;;;;;17.28;100.00;101142.06;10314061;28;20038;-75
2023/07/26 06:28:04;;;;;;;7.75;4.35;;;;;;;18.38;100.00;101140.41;10333108;28;20141;-75
2023/07/26 06:33:04;;;;;;;11.48;2.78;;;;;;;19.29;100.00;101147.63;10314695;28;20141;-74
2023/07/26 06:38:05;;;;;;;3.40;2.40;;;;;;;18.70;100.00;101138.06;10314863;28;20042;-75
2023/07/26 06:43:06;;;;;;;7.32;3.50;;;;;;;18.07;100.00;101148.03;10315484;28;20415;-75
2023/07/26 06:48:07;;;;;;;3.13;2.80;;;;;;;18.17;100.00;101145.50;10331070;28;20064;-74
2023/07/26 06:53:07;;;;;;;3.47;3.03;;;;;;;18.32;100.00;101161.44;10338039;28;20065;-74
2023/07/26 06:58:08;;;;;;;5.32;2.92;;;;;;;19.45;100.00;101159.69;10306228;28;20117;-74
2023/07/26 07:03:08;;;;;;;2.83;2.58;;;;;;;21.21;100.00;101156.13;10337610;28;20540;-74
2023/07/26 07:08:08;;;;;;;5.68;3.55;;;;;;;22.36;100.00;101155.53;10338758;28;20053;-74
2023/07/26 07:13:09;;;;;;;4.20;3.58;;;;;;;23.06;100.00;101150.47;10337897;28;20121;-74
2023/07/26 07:18:09;;;;;;;5.45;2.42;;;;;;;23.06;100.00;101161.50;10337139;28;20054;-74
2023/07/26 07:23:10;;;;;;;3.13;2.88;;;;;;;23.12;98.87;101174.22;10336315;28;20092;-75
2023/07/26 07:28:10;;;;;;;6.57;3.58;;;;;;;23.97;98.10;101173.66;10304191;28;20062;-74
2023/07/26 07:33:10;;;;;;;4.57;3.22;;;;;;;23.79;95.69;101181.41;10337608;28;20513;-74
2023/07/26 07:38:11;;;;;;;3.88;2.72;;;;;;;24.45;93.05;101185.13;10337487;28;20089;-74
2023/07/26 07:43:11;;;;;;;4.80;2.33;;;;;;;25.14;90.46;101183.34;10321187;28;20034;-74
2023/07/26 07:48:12;;;;;;;3.65;2.70;;;;;;;25.65;78.77;101186.53;10338187;28;20406;-74
2023/07/26 07:53:12;;;;;;;2.45;2.10;;;;;;;23.79;84.85;101184.19;10319843;28;20038;-74
2023/07/26 07:58:12;;;;;;;3.15;2.85;;;;;;;23.92;82.02;101196.59;10337793;28;20490;-74
2023/07/26 08:03:13;;;;;;;4.78;2.60;;;;;;;22.81;79.74;101199.00;10318709;28;20072;-74
2023/07/26 08:08:13;;;;;;;1.75;1.65;;;;;;;23.97;76.46;101202.13;10318558;28;20472;-74
2023/07/26 08:13:14;;;;;;;2.67;2.58;;;;;;;25.40;68.12;101190.38;10318515;28;20093;-74
2023/07/26 08:18:14;;;;;;;3.55;3.13;;;;;;;26.31;70.22;101187.78;10335820;28;20458;-74
2023/07/26 08:23:14;;;;;;;3.65;2.60;;;;;;;25.94;64.79;101203.22;10336268;28;20027;-74
2023/07/26 08:28:15;;;;;;;2.30;1.75;;;;;;;25.86;64.20;101203.84;10336761;28;20142;-74
2023/07/26 08:33:15;;;;;;;2.58;2.38;;;;;;;26.45;56.98;101204.53;10334760;28;20121;-74
2023/07/26 08:38:17;;;;;;;4.18;2.05;;;;;;;25.75;53.17;101197.53;10334999;28;20096;-74
2023/07/26 08:43:21;;;;;;;2.60;2.40;;;;;;;25.50;53.93;101211.63;10335564;28;20027;-76
2023/07/26 08:48:21;;;;;;;2.45;2.03;;;;;;;24.59;55.05;101202.78;10335094;28;20026;-76
2023/07/26 08:53:22;;;;;;;2.55;2.35;;;;;;;24.69;55.12;101208.25;10301259;28;20030;-76
2023/07/26 08:58:22;;;;;;;1.95;1.85;;;;;;;23.44;53.13;101223.72;10301493;28;20046;-76
2023/07/26 09:03:22;;;;;;;2.15;1.98;;;;;;;24.74;55.48;101213.78;10317012;28;20046;-76
2023/07/26 09:08:23;;;;;;;4.10;2.55;;;;;;;23.69;53.05;101211.84;10317771;28;20042;-76
2023/07/26 09:13:23;;;;;;;7.85;2.22;;;;;;;24.16;53.34;101210.66;10315977;28;20109;-76
2023/07/26 09:18:24;;;;;;;2.65;2.33;;;;;;;26.27;47.95;101203.41;10334575;28;20117;-76
2023/07/26 09:23:24;;;;;;;2.40;2.20;;;;;;;25.20;48.76;101209.91;10332624;28;20165;-76
2023/07/26 09:28:25;;;;;;;3.38;2.30;;;;;;;25.46;49.90;101214.16;10291898;28;20542;-76
2023/07/26 09:33:27;;;;;;;2.78;2.58;;;;;;;25.67;50.87;101208.44;10293490;28;20094;-76
2023/07/26 09:38:27;;;;;;;6.20;2.75;;;;;;;23.80;53.62;101210.75;10293535;28;20077;-76
2023/07/26 09:43:32;;;;;;;3.00;2.70;;;;;;;25.22;51.82;101214.06;10275713;28;20055;-76
2023/07/26 09:48:32;;;;;;;2.85;2.65;;;;;;;25.54;52.61;101218.25;10293154;28;20118;-76
2023/07/26 09:53:33;;;;;;;2.85;2.65;;;;;;;24.77;51.53;101217.94;10292986;28;20125;-77
2023/07/26 09:58:34;;;;;;;2.60;2.40;;;;;;;24.80;51.66;101212.66;10307295;28;20038;-76
2023/07/26 10:03:34;;;;;;;2.78;2.67;;;;;;;25.35;51.46;101220.91;10291540;28;20062;-76
2023/07/26 10:08:35;;;;;;;2.95;2.17;;;;;;;24.91;50.79;101223.66;10275481;28;20438;-76
2023/07/26 10:13:36;;;;;;;3.33;2.33;;;;;;;24.49;49.47;101216.66;10292437;28;20066;-75
2023/07/26 10:18:36;;;;;;;3.58;3.00;;;;;;;24.58;49.69;101226.06;10237156;28;20078;-76
2023/07/26 10:23:37;;;;;;;4.18;2.15;;;;;;;26.39;49.54;101228.78;10274526;28;20035;-77
2023/07/26 10:28:38;;;;;;;3.78;2.58;;;;;;;26.63;47.46;101226.00;10315309;28;20058;-77
2023/07/26 10:33:45;;;;;;;6.30;2.83;;;;;;;25.09;48.33;101228.53;10283389;28;20055;-77
2023/07/26 10:38:51;;;;;;;7.25;3.20;;;;;;;24.77;49.37;101223.47;10299826;28;20053;-77
2023/07/26 10:44:21;;;;;;;2.13;1.95;;;;;;;25.60;48.83;101232.91;10266657;28;20038;-77
2023/07/26 10:49:26;;;;;;;3.17;2.63;;;;;;;26.79;46.77;101223.03;10268261;28;20047;-78
2023/07/26 10:54:35;;;;;;;3.40;3.05;;;;;;;26.14;47.60;101238.25;10299365;28;20039;-77
2023/07/26 10:59:36;;;;;;;2.78;2.42;;;;;;;26.13;48.34;101236.59;10298780;28;20435;-78
2023/07/26 11:04:36;;;;;;;9.25;2.97;;;;;;;27.06;45.54;101236.28;10266789;28;20034;-77
2023/07/26 11:09:36;;;;;;;5.65;3.17;;;;;;;27.48;45.56;101243.72;10282146;28;20119;-77
2023/07/26 11:14:37;;;;;;;3.90;3.42;;;;;;;25.76;46.82;101248.28;10265254;28;20506;-78
2023/07/26 11:19:46;;;;;;;5.97;3.05;;;;;;;27.36;45.68;101235.81;10281560;28;20065;-77
2023/07/26 11:24:46;;;;;;;5.15;2.83;;;;;;;28.29;42.71;101235.88;10298108;28;20057;-78
2023/07/26 11:29:47;;;;;;;2.13;1.90;;;;;;;27.43;41.16;101246.56;10281129;28;20073;-78
2023/07/26 11:34:53;;;;;;;2.90;2.70;;;;;;;27.80;42.79;101230.97;10281114;28;20043;-77
2023/07/26 11:40:03;;;;;;;2.88;2.33;;;;;;;27.77;43.88;101253.84;10298358;28;20038;-77
2023/07/26 11:45:07;;;;;;;4.72;2.08;;;;;;;27.17;42.24;101248.09;10264976;28;20064;-77
2023/07/26 11:50:08;;;;;;;3.85;3.25;;;;;;;27.91;42.34;101251.09;10247965;28;20578;-78
2023/07/26 11:55:09;;;;;;;2.65;2.45;;;;;;;27.95;42.77;101258.53;10279408;28;20051;-77
2023/07/26 12:00:10;;;;;;;8.18;2.33;;;;;;;27.61;42.35;101252.41;10279051;28;20050;-78
2023/07/26 12:05:20;;;;;;;5.63;2.38;;;;;;;26.35;43.93;101260.22;10294767;28;20047;-78
2023/07/26 12:10:31;;;;;;;3.13;2.80;;;;;;;26.69;41.86;101259.28;10297361;28;20039;-77
2023/07/26 12:15:39;;;;;;;3.40;3.05;;;;;;;27.63;42.27;101264.88;10278456;28;20062;-77
2023/07/26 12:20:39;;;;;;;3.95;3.22;;;;;;;27.42;41.13;101258.84;10278998;28;20382;-77
2023/07/26 12:25:40;;;;;;;3.78;3.47;;;;;;;27.60;41.31;101254.38;10278370;28;20030;-76
2023/07/26 12:30:41;;;;;;;2.55;2.35;;;;;;;27.36;40.64;101265.59;10262846;28;20077;-77
2023/07/26 12:35:44;;;;;;;5.82;2.75;;;;;;;27.89;41.90;101261.69;10295886;28;20060;-78
2023/07/26 12:40:45;;;;;;;2.92;2.72;;;;;;;28.05;41.47;101266.69;10277429;28;20454;-76
2023/07/26 12:45:45;;;;;;;3.92;2.60;;;;;;;27.55;40.01;101260.84;10293027;28;20046;-79
2023/07/26 12:50:47;;;;;;;4.22;2.53;;;;;;;27.63;41.74;101269.63;10245043;28;20351;-76
2023/07/26 12:55:48;;;;;;;2.88;2.65;;;;;;;27.90;41.35;101266.97;10277277;28;20125;-76
2023/07/26 13:00:48;;;;;;;4.90;2.80;;;;;;;27.66;40.96;101253.13;10276637;28;20044;-78
2023/07/26 13:05:50;;;;;;;3.28;2.38;;;;;;;27.90;40.05;101255.00;10293440;28;20042;-77
2023/07/26 13:10:50;;;;;;;4.80;2.50;;;;;;;27.87;41.11;101255.63;10276281;28;20054;-77
2023/07/26 13:15:51;;;;;;;4.07;2.90;;;;;;;27.88;41.43;101260.88;10277840;28;20065;-79
2023/07/26 13:20:53;;;;;;;2.30;2.08;;;;;;;27.53;39.19;101257.53;10276373;28;20455;-78
2023/07/26 13:25:54;;;;;;;1.63;1.52;;;;;;;27.85;40.08;101255.91;10275542;28;20051;-77
2023/07/26 13:30:54;;;;;;;3.20;1.95;;;;;;;27.47;41.50;101257.91;10293899;28;20074;-76
2023/07/26 13:35:54;;;;;;;8.07;2.55;;;;;;;27.54;41.14;101256.41;10277327;28;20415;-75
2023/07/26 13:40:55;;;;;;;3.72;2.67;;;;;;;26.80;42.68;101260.81;10292361;28;20062;-76
2023/07/26 13:45:55;;;;;;;3.10;2.70;;;;;;;26.60;42.76;101262.72;10292583;28;20454;-76
2023/07/26 13:50:56;;;;;;;2.92;2.70;;;;;;;26.87;42.46;101264.06;10275068;28;20065;-75
2023/07/26 13:55:56;;;;;;;5.43;1.90;;;;;;;26.85;41.82;101257.97;10275246;28;20121;-75
2023/07/26 14:00:56;;;;;;;2.30;2.10;;;;;;;26.94;42.64;101250.63;10279922;28;20042;-73
2023/07/26 14:05:57;;;;;;;5.32;2.65;;;;;;;27.12;42.01;101251.72;10283670;28;20059;-73
2023/07/26 14:10:57;;;;;;;3.30;2.05;;;;;;;26.97;40.41;101252.81;10284414;28;20193;-73
2023/07/26 14:15:58;;;;;;;2.47;2.28;;;;;;;26.51;40.38;101253.38;10283537;28;20045;-79
2023/07/26 14:20:59;;;;;;;2.40;2.30;;;;;;;26.51;42.34;101256.16;10251113;28;20058;-74
2023/07/26 14:25:59;;;;;;;2.72;2.53;;;;;;;26.46;43.16;101256.22;10299659;28;20069;-75
2023/07/26 14:31:00;;;;;;;2.25;2.05;;;;;;;26.12;41.83;101257.13;10298444;28;20397;-75
2023/07/26 14:36:00;;;;;;;4.03;2.95;;;;;;;25.96;43.13;101250.06;10299938;28;20521;-73
2023/07/26 14:41:01;;;;;;;2.83;2.55;;;;;;;25.97;43.78;101247.03;10282547;28;20146;-74
2023/07/26 14:46:01;;;;;;;3.97;2.92;;;;;;;25.94;43.54;101252.31;10281467;28;20170;-74
2023/07/26 14:51:01;;;;;;;3.72;2.60;;;;;;;25.71;42.88;101251.94;10298285;28;20039;-74
2023/07/26 14:56:02;;;;;;;5.07;2.58;;;;;;;25.29;43.44;101242.28;10298795;28;20058;-74
2023/07/26 15:01:03;;;;;;;2.33;2.13;;;;;;;25.22;43.31;101240.97;10282307;28;20074;-74
2023/07/26 15:06:04;;;;;;;2.47;2.38;;;;;;;25.29;42.33;101238.69;10281990;28;20167;-74
2023/07/26 15:11:04;;;;;;;2.45;2.25;;;;;;;25.17;43.12;101233.50;10280955;28;20160;-74
2023/07/26 15:16:05;;;;;;;1.92;1.83;;;;;;;24.77;40.85;101240.91;10280455;28;20570;-74
2023/07/26 15:21:06;;;;;;;5.95;2.75;;;;;;;24.55;42.69;101232.97;10297824;28;20039;-74
2023/07/26 15:26:07;;;;;;;6.15;2.30;;;;;;;23.89;41.37;101222.88;10296840;28;20452;-74
2023/07/26 15:31:07;;;;;;;8.07;3.25;;;;;;;23.98;41.59;101216.78;10298099;28;20046;-74
2023/07/26 15:36:07;;;;;;;1.98;1.88;;;;;;;23.68;40.67;101212.94;10295879;28;20171;-74
2023/07/26 15:41:08;;;;;;;2.20;1.50;;;;;;;23.95;41.80;101211.81;10279804;28;20039;-74
2023/07/26 15:46:08;;;;;;;2.17;2.08;;;;;;;23.93;41.67;101208.50;10297858;28;20051;-74
2023/07/26 15:51:09;;;;;;;3.58;2.25;;;;;;;23.85;40.04;101210.72;10278894;28;20447;-74
2023/07/26 15:56:09;;;;;;;2.63;2.42;;;;;;;23.65;40.27;101199.66;10279101;28;20130;-74
2023/07/26 16:01:10;;;;;;;2.08;1.98;;;;;;;23.30;41.13;101200.50;10296053;28;20035;-73
2023/07/26 16:06:10;;;;;;;1.75;1.65;;;;;;;23.39;41.35;101194.16;10296115;28;20471;-74
2023/07/26 16:11:14;;;;;;;1.92;1.83;;;;;;;23.46;42.06;101196.63;10297083;28;20113;-73
2023/07/26 16:16:15;;;;;;;2.13;2.03;;;;;;;23.26;42.67;101180.88;10279751;28;20068;-74
2023/07/26 16:21:15;;;;;;;11.15;1.80;;;;;;;23.12;43.25;101179.75;10294288;28;20071;-73
2023/07/26 16:26:18;;;;;;;2.35;1.98;;;;;;;22.84;43.44;101183.81;10295206;28;20078;-73
2023/07/26 16:31:18;;;;;;;1.60;1.50;;;;;;;22.12;43.45;101179.94;10293642;28;20045;-74
2023/07/26 16:36:19;;;;;;;1.58;1.48;;;;;;;21.67;43.38;101181.31;10293991;28;20042;-74
2023/07/26 16:41:19;;;;;;;2.60;2.05;;;;;;;21.24;44.00;101172.13;10294860;28;20462;-73
2023/07/26 16:46:20;;;;;;;2.20;2.00;;;;;;;21.01;44.43;101178.81;10277163;28;20046;-73
2023/07/26 16:51:20;;;;;;;3.60;2.75;;;;;;;20.81;44.01;101179.44;10295086;28;20054;-73
2023/07/26 16:56:20;;;;;;;3.85;2.40;;;;;;;20.76;42.84;101184.88;10294366;28;20039;-73
2023/07/26 17:01:21;;;;;;;4.07;2.35;;;;;;;20.67;43.56;101168.81;10294559;28;20435;-73
2023/07/26 17:06:21;;;;;;;2.88;2.58;;;;;;;20.55;44.04;101165.38;10292730;28;20038;-73
2023/07/26 17:11:22;;;;;;;1.77;1.67;;;;;;;20.43;44.56;101154.47;10276558;28;20066;-73
2023/07/26 17:16:22;;;;;;;6.65;1.95;;;;;;;20.34;44.63;101147.78;10294675;28;20043;-73
2023/07/26 17:21:23;;;;;;;8.00;2.53;;;;;;;20.24;45.25;101135.81;10276400;28;20149;-73
2023/07/26 17:26:25;;;;;;;2.20;2.08;;;;;;;20.22;45.38;101144.31;10291979;28;20059;-73
2023/07/26 17:31:26;;;;;;;4.90;2.20;;;;;;;20.24;45.17;101146.81;10293364;28;20046;-73
2023/07/26 17:36:27;;;;;;;2.40;2.20;;;;;;;20.28;45.64;101150.72;10275475;28;20162;-73
2023/07/26 17:41:27;;;;;;;2.10;2.00;;;;;;;20.28;45.62;101147.97;10292273;28;20551;-73
2023/07/26 17:46:29;;;;;;;3.35;2.47;;;;;;;20.11;46.00;101146.13;10292805;28;20098;-73
2023/07/26 17:51:29;;;;;;;2.75;2.55;;;;;;;19.95;46.43;101144.25;10276163;28;20059;-73
2023/07/26 17:56:30;;;;;;;22.63;2.88;;;;;;;19.98;46.56;101147.31;10294076;28;20087;-73
2023/07/26 18:01:30;;;;;;;2.78;2.20;;;;;;;19.95;46.60;101136.84;10292396;28;20039;-73
2023/07/26 18:06:34;;;;;;;5.97;3.08;;;;;;;19.85;46.80;101136.69;10275092;28;20043;-73
2023/07/26 18:11:34;;;;;;;2.13;1.92;;;;;;;19.65;47.72;101125.41;10292993;28;20131;-73
2023/07/26 18:16:35;;;;;;;5.07;2.90;;;;;;;19.45;49.12;101128.66;10291940;28;20031;-73
2023/07/26 18:21:35;;;;;;;2.33;2.13;;;;;;;19.38;48.87;101125.25;10274403;28;20039;-73
2023/07/26 18:26:39;;;;;;;4.25;2.83;;;;;;;19.29;49.15;101122.09;10292454;28;20062;-73
2023/07/26 18:31:40;;;;;;;2.40;2.20;;;;;;;19.21;49.48;101125.25;10274379;28;20058;-73
2023/07/26 18:36:40;;;;;;;2.28;1.88;;;;;;;19.10;49.33;101121.50;10274865;28;20075;-73
2023/07/26 18:41:40;;;;;;;1.52;1.42;;;;;;;19.08;48.91;101120.94;10275613;28;20372;-72
2023/07/26 18:46:41;;;;;;;1.75;1.65;;;;;;;19.07;48.79;101124.72;10292729;28;20046;-75
2023/07/26 18:51:41;;;;;;;2.33;1.98;;;;;;;18.95;49.18;101119.34;10265904;28;20039;-74
2023/07/26 18:56:42;;;;;;;4.00;2.42;;;;;;;18.83;49.43;101123.22;10281350;28;20035;-76
2023/07/26 19:01:42;;;;;;;1.35;1.25;;;;;;;18.67;50.03;101122.91;10298294;28;20045;-73
2023/07/26 19:06:43;;;;;;;5.82;1.73;;;;;;;18.55;50.89;101130.34;10280987;28;20038;-76
2023/07/26 19:11:43;;;;;;;3.35;2.50;;;;;;;18.42;51.09;101119.69;10298212;28;20042;-74
2023/07/26 19:16:43;;;;;;;4.90;2.72;;;;;;;18.26;51.54;101121.28;10298532;28;20039;-71
2023/07/26 19:21:44;;;;;;;3.38;2.28;;;;;;;18.12;52.24;101120.72;10298282;28;20034;-72
2023/07/26 19:26:44;;;;;;;3.47;2.20;;;;;;;18.06;51.39;101122.53;10297779;28;20050;-74
2023/07/26 19:31:45;;;;;;;5.50;3.47;;;;;;;17.93;52.49;101121.94;10297865;28;20035;-72
2023/07/26 19:36:45;;;;;;;2.92;2.63;;;;;;;17.85;53.48;101118.50;10297390;28;20051;-72
2023/07/26 19:41:45;;;;;;;11.98;2.92;;;;;;;17.78;53.56;101120.56;10297210;28;20031;-73
2023/07/26 19:46:46;;;;;;;3.80;2.58;;;;;;;17.67;54.69;101110.41;10280384;28;20098;-73
2023/07/26 19:51:46;;;;;;;3.45;2.13;;;;;;;17.58;55.19;101109.94;10296980;28;20035;-71
2023/07/26 19:56:47;;;;;;;3.08;2.70;;;;;;;17.51;55.40;101106.47;10296087;28;20045;-74
2023/07/26 20:01:48;;;;;;;2.30;2.10;;;;;;;17.47;55.52;101104.47;10278679;28;20027;-73
2023/07/26 20:06:51;;;;;;;3.42;2.38;;;;;;;17.43;55.92;101110.41;10278698;28;20057;-73
2023/07/26 20:11:51;;;;;;;3.00;2.63;;;;;;;17.37;56.03;101097.69;10296171;28;20031;-74
2023/07/26 20:16:52;;;;;;;3.42;2.67;;;;;;;17.32;59.72;101104.94;10295743;28;20040;-72
2023/07/26 20:21:52;;;;;;;5.45;2.33;;;;;;;17.27;60.56;101097.44;10295768;28;20113;-73
2023/07/26 20:26:52;;;;;;;2.78;2.33;;;;;;;17.28;60.40;101101.00;10296134;28;20146;-73
2023/07/26 20:31:53;;;;;;;4.18;2.65;;;;;;;17.32;60.53;101097.53;10295368;28;20027;-72
2023/07/26 20:36:54;;;;;;;2.83;2.63;;;;;;;17.36;59.19;101085.06;10295665;28;20071;-74
2023/07/26 20:41:54;;;;;;;3.60;2.92;;;;;;;17.36;61.60;101081.50;10295811;28;20038;-74
2023/07/26 20:46:54;;;;;;;10.45;3.63;;;;;;;17.37;61.88;101070.31;10293653;28;20456;-75
2023/07/26 20:51:55;;;;;;;5.65;3.60;;;;;;;17.37;62.71;101067.56;10294890;28;20031;-73
2023/07/26 20:56:55;;;;;;;3.50;2.22;;;;;;;17.34;63.86;101062.56;10295289;28;20041;-74
2023/07/26 21:01:56;;;;;;;2.97;2.67;;;;;;;17.37;64.00;101064.00;10261629;28;20034;-74
2023/07/26 21:06:57;;;;;;;5.32;2.80;;;;;;;17.38;67.01;101068.41;10293426;28;20121;-75
2023/07/26 21:11:57;;;;;;;8.98;2.65;;;;;;;17.40;65.22;101056.13;10293116;28;20062;-74
2023/07/26 21:16:58;;;;;;;3.92;3.45;;;;;;;17.38;67.09;101052.78;10293509;28;20039;-72
2023/07/26 21:21:58;;;;;;;3.05;2.83;;;;;;;17.41;66.12;101037.81;10295868;28;20386;-72
2023/07/26 21:26:59;;;;;;;4.25;3.35;;;;;;;17.37;69.26;101028.41;10295514;28;20059;-72
2023/07/26 21:31:59;;;;;;;3.40;3.10;;;;;;;17.37;70.30;101026.50;10294360;28;20038;-72
2023/07/26 21:36:59;;;;;;;5.07;3.28;;;;;;;17.33;70.12;101019.84;10295297;28;20515;-73
2023/07/26 21:42:00;;;;;;;4.45;4.05;;;;;;;17.33;72.50;101014.38;10296108;28;20038;-72
2023/07/26 21:47:00;;;;;;;8.15;3.97;;;;;;;17.34;69.68;101010.56;10297262;28;20102;-72
2023/07/26 21:52:01;;;;;;;4.80;3.35;;;;;;;17.37;69.15;101001.03;10297574;28;20042;-72
2023/07/26 21:57:01;;;;;;;3.13;2.67;;;;;;;17.36;72.03;100996.66;10279528;28;20039;-73
2023/07/26 22:02:01;;;;;;;6.25;2.92;;;;;;;17.37;72.13;100992.81;10299036;28;20038;-73
2023/07/26 22:07:02;;;;;;;5.18;2.88;;;;;;;17.35;76.37;100979.38;10296078;28;20067;-72
2023/07/26 22:12:03;;;;;;;5.65;3.72;;;;;;;17.39;73.37;100972.34;10292284;28;20387;-72
2023/07/26 22:17:03;;;;;;;5.00;3.83;;;;;;;17.43;76.58;100964.50;10296822;28;20035;-73
2023/07/26 22:22:04;;;;;;;7.72;3.97;;;;;;;17.48;74.75;100974.69;10303462;28;20042;-73
2023/07/26 22:27:05;;;;;;;7.32;3.67;;;;;;;17.50;78.52;100965.19;10284568;28;20051;-73
2023/07/26 22:32:07;;;;;;;5.85;2.92;;;;;;;17.56;79.23;100966.13;10302597;28;20106;-72
2023/07/26 22:37:08;;;;;;;5.65;3.58;;;;;;;17.64;78.50;100961.09;10283649;28;20035;-73
2023/07/26 22:42:08;;;;;;;7.80;4.10;;;;;;;17.64;76.29;100952.03;10299801;28;20035;-73
2023/07/26 22:47:09;;;;;;;8.93;3.35;;;;;;;17.65;77.61;100948.25;10299909;28;20489;-73
2023/07/26 22:52:09;;;;;;;3.75;3.35;;;;;;;17.65;77.86;100942.75;10300564;28;20042;-72
2023/07/26 22:57:09;;;;;;;4.93;3.70;;;;;;;17.63;79.94;100937.50;10299273;28;20378;-73
2023/07/26 23:02:11;;;;;;;5.28;4.07;;;;;;;17.66;82.68;100938.94;10280869;28;20190;-72